Terminal Aerodrome Forecast
Issued by NWS Northern Indiana

Home | Current Version | Previous Version | Text Only | Print | Product List | Glossary On
Versions: 1 2 3 4 5 6 7 8 9 10 11 12 13 14 15
000
FTUS43 KIWX 170530
TAFFWA
TAF
KFWA 170530Z 1706/1806 18005KT P6SM SCT250
     FM171500 19010KT P6SM SCT060 BKN200
     FM172300 21011KT P6SM -SN OVC025
      TEMPO 1800/1804 5SM -SN OVC015=

USA.gov is the U.S. government's official web portal to all federal, state and local government web resources and services.